Time,TemperatureF,DewpointF,PressureIn,WindDirection,WindDirectionDegrees,WindSpeedMPH,WindSpeedGustMPH,Humidity,HourlyPrecipIn,Conditions,Clouds,dailyrainin,SoftwareType,DateUTC
2013-04-22 00:03:00,33.0,29.3,26.99,East,90,1.3,1.3,86,0.00,,,0.00,VWS V14.01,2013-04-22 06:03:00,
2013-04-22 00:08:00,33.0,29.3,26.99,East,90,0.0,2.4,86,0.00,,,0.00,VWS V14.01,2013-04-22 06:08:00,
2013-04-22 00:13:00,32.9,29.5,26.99,East,90,1.1,2.4,87,0.00,,,0.00,VWS V14.01,2013-04-22 06:13:00,
2013-04-22 00:18:00,32.9,29.5,26.99,East,90,3.8,3.8,87,0.00,,,0.00,VWS V14.01,2013-04-22 06:18:00,
2013-04-22 00:23:00,32.9,29.5,26.98,East,90,4.6,4.6,87,0.00,,,0.00,VWS V14.01,2013-04-22 06:23:00,
2013-04-22 00:28:00,32.7,29.3,26.99,East,90,3.8,4.6,87,0.00,,,0.00,VWS V14.01,2013-04-22 06:28:00,
2013-04-22 00:33:00,32.7,29.3,26.99,East,90,1.5,2.9,87,0.00,,,0.00,VWS V14.01,2013-04-22 06:33:00,
2013-04-22 00:38:00,32.7,29.3,26.99,East,90,3.1,6.2,87,0.00,,,0.00,VWS V14.01,2013-04-22 06:38:00,
2013-04-22 00:43:00,32.5,29.4,26.99,East,90,3.3,6.2,88,0.00,,,0.00,VWS V14.01,2013-04-22 06:43:00,
2013-04-22 00:49:00,32.5,29.4,27.00,East,90,0.0,3.1,88,0.00,,,0.00,VWS V14.01,2013-04-22 06:49:00,
2013-04-22 00:54:00,32.3,29.1,26.99,East,90,0.0,5.3,88,0.00,,,0.00,VWS V14.01,2013-04-22 06:54:00,
2013-04-22 00:59:00,32.1,29.0,27.00,East,90,0.0,5.3,88,0.00,,,0.00,VWS V14.01,2013-04-22 06:59:00,
2013-04-22 01:04:00,32.0,28.9,27.00,East,90,0.0,0.0,88,0.00,,,0.00,VWS V14.01,2013-04-22 07:04:00,
2013-04-22 01:09:00,31.8,28.7,27.00,East,90,0.0,0.0,88,0.00,,,0.00,VWS V14.01,2013-04-22 07:09:00,
2013-04-22 01:14:00,31.6,28.5,27.00,East,90,0.0,0.0,88,0.00,,,0.00,VWS V14.01,2013-04-22 07:14:00,
2013-04-22 01:19:00,31.2,28.1,27.01,East,90,0.0,0.0,88,0.00,,,0.00,VWS V14.01,2013-04-22 07:19:00,
2013-04-22 01:24:00,31.2,28.1,27.01,East,90,0.0,0.0,88,0.00,,,0.00,VWS V14.01,2013-04-22 07:24:00,
2013-04-22 01:29:00,31.2,28.1,27.01,East,90,0.0,0.0,88,0.00,,,0.00,VWS V14.01,2013-04-22 07:29:00,
2013-04-22 01:34:00,31.1,28.0,27.01,East,90,0.0,0.0,88,0.00,,,0.00,VWS V14.01,2013-04-22 07:34:00,
2013-04-22 01:39:00,30.9,27.8,27.02,East,90,0.0,0.0,88,0.00,,,0.00,VWS V14.01,2013-04-22 07:39:00,
2013-04-22 01:44:00,30.7,27.6,27.02,East,90,0.0,0.0,88,0.00,,,0.00,VWS V14.01,2013-04-22 07:44:00,
2013-04-22 01:49:00,30.7,27.6,27.02,East,90,0.0,0.0,88,0.00,,,0.00,VWS V14.01,2013-04-22 07:49:00,
2013-04-22 01:54:00,30.7,27.6,27.02,East,90,0.0,0.0,88,0.00,,,0.00,VWS V14.01,2013-04-22 07:54:00,
2013-04-22 01:59:00,30.5,27.4,27.02,East,90,0.0,0.0,88,0.00,,,0.00,VWS V14.01,2013-04-22 07:59:00,
2013-04-22 02:04:00,30.3,27.2,27.02,East,90,0.0,0.0,88,0.00,,,0.00,VWS V14.01,2013-04-22 08:04:00,
2013-04-22 02:09:00,30.2,27.1,27.03,East,90,0.0,0.0,88,0.00,,,0.00,VWS V14.01,2013-04-22 08:09:00,
2013-04-22 02:14:00,30.0,26.9,27.03,East,90,0.0,0.0,88,0.00,,,0.00,VWS V14.01,2013-04-22 08:14:00,
2013-04-22 02:19:00,30.0,27.2,27.02,East,90,0.0,0.0,89,0.00,,,0.00,VWS V14.01,2013-04-22 08:19:00,
2013-04-22 02:24:00,29.8,27.0,27.02,East,90,0.0,0.0,89,0.00,,,0.00,VWS V14.01,2013-04-22 08:24:00,
2013-04-22 02:29:00,29.8,27.0,27.03,East,90,0.0,0.0,89,0.00,,,0.00,VWS V14.01,2013-04-22 08:29:00,
2013-04-22 02:34:00,29.8,27.0,27.03,East,90,0.0,0.0,89,0.00,,,0.00,VWS V14.01,2013-04-22 08:34:00,
2013-04-22 02:39:00,29.6,26.8,27.03,East,90,0.0,0.0,89,0.00,,,0.00,VWS V14.01,2013-04-22 08:39:00,
2013-04-22 02:44:00,29.4,26.6,27.03,East,90,0.0,0.0,89,0.00,,,0.00,VWS V14.01,2013-04-22 08:44:00,
2013-04-22 02:49:00,29.1,26.3,27.03,East,90,0.0,0.0,89,0.00,,,0.00,VWS V14.01,2013-04-22 08:49:00,
2013-04-22 02:54:00,29.1,26.3,27.03,East,90,0.0,0.0,89,0.00,,,0.00,VWS V14.01,2013-04-22 08:54:00,
2013-04-22 02:59:00,28.9,25.8,27.03,East,90,0.0,0.0,88,0.00,,,0.00,VWS V14.01,2013-04-22 08:59:00,
2013-04-22 03:04:00,28.5,25.4,27.04,East,90,0.0,0.0,88,0.00,,,0.00,VWS V14.01,2013-04-22 09:04:00,
2013-04-22 03:09:00,28.5,25.4,27.04,East,90,0.0,0.0,88,0.00,,,0.00,VWS V14.01,2013-04-22 09:09:00,
2013-04-22 03:14:00,28.4,25.3,27.04,East,90,0.0,0.0,88,0.00,,,0.00,VWS V14.01,2013-04-22 09:14:00,
2013-04-22 03:19:00,28.2,25.4,27.05,East,90,0.0,0.0,89,0.00,,,0.00,VWS V14.01,2013-04-22 09:19:00,
2013-04-22 03:25:00,28.2,25.4,27.05,East,90,0.0,0.0,89,0.00,,,0.00,VWS V14.01,2013-04-22 09:25:00,
2013-04-22 03:30:00,28.2,25.1,27.06,East,90,0.0,0.0,88,0.00,,,0.00,VWS V14.01,2013-04-22 09:30:00,
2013-04-22 03:35:00,28.2,25.1,27.05,East,90,0.0,0.0,88,0.00,,,0.00,VWS V14.01,2013-04-22 09:35:00,
2013-04-22 03:40:00,28.2,25.1,27.06,East,90,0.0,0.0,88,0.00,,,0.00,VWS V14.01,2013-04-22 09:40:00,
2013-04-22 03:45:00,28.2,25.1,27.06,East,90,0.0,0.0,88,0.00,,,0.00,VWS V14.01,2013-04-22 09:45:00,
2013-04-22 03:50:00,28.2,25.1,27.06,East,90,0.0,0.0,88,0.00,,,0.00,VWS V14.01,2013-04-22 09:50:00,
2013-04-22 03:55:00,28.2,25.1,27.05,East,90,0.0,0.0,88,0.00,,,0.00,VWS V14.01,2013-04-22 09:55:00,
2013-04-22 04:00:00,28.2,25.1,27.05,East,90,0.0,0.0,88,0.00,,,0.00,VWS V14.01,2013-04-22 10:00:00,
2013-04-22 04:05:00,28.2,25.1,27.05,East,90,0.0,0.0,88,0.00,,,0.00,VWS V14.01,2013-04-22 10:05:00,
2013-04-22 04:10:00,28.2,25.1,27.05,East,90,0.0,0.0,88,0.00,,,0.00,VWS V14.01,2013-04-22 10:10:00,
2013-04-22 04:15:00,28.2,25.1,27.05,East,90,0.0,0.0,88,0.00,,,0.00,VWS V14.01,2013-04-22 10:15:00,
2013-04-22 04:20:00,28.0,24.9,27.05,East,90,0.0,0.0,88,0.00,,,0.00,VWS V14.01,2013-04-22 10:20:00,
2013-04-22 04:25:00,28.0,24.9,27.05,East,90,0.0,0.0,88,0.00,,,0.00,VWS V14.01,2013-04-22 10:25:00,
2013-04-22 04:30:00,28.0,24.9,27.05,East,90,0.0,0.0,88,0.00,,,0.00,VWS V14.01,2013-04-22 10:30:00,
2013-04-22 04:35:00,28.2,24.8,27.05,East,90,0.0,0.0,87,0.00,,,0.00,VWS V14.01,2013-04-22 10:35:00,
2013-04-22 04:40:00,28.0,24.6,27.05,East,90,0.0,0.0,87,0.00,,,0.00,VWS V14.01,2013-04-22 10:40:00,
2013-04-22 04:45:00,28.0,24.6,27.04,East,90,0.0,0.0,87,0.00,,,0.00,VWS V14.01,2013-04-22 10:45:00,
2013-04-22 04:50:00,28.0,24.6,27.04,East,90,0.0,0.0,87,0.00,,,0.00,VWS V14.01,2013-04-22 10:50:00,
2013-04-22 04:55:00,28.0,24.6,27.05,East,90,0.0,0.0,87,0.00,,,0.00,VWS V14.01,2013-04-22 10:55:00,
2013-04-22 05:00:00,28.0,24.6,27.06,East,90,0.0,0.0,87,0.00,,,0.00,VWS V14.01,2013-04-22 11:00:00,
2013-04-22 05:05:00,28.0,24.6,27.07,East,90,0.0,0.0,87,0.00,,,0.00,VWS V14.01,2013-04-22 11:05:00,
2013-04-22 05:10:00,28.0,24.6,27.06,East,90,0.0,0.0,87,0.00,,,0.00,VWS V14.01,2013-04-22 11:10:00,
2013-04-22 05:15:00,28.2,24.8,27.06,East,90,0.0,0.0,87,0.00,,,0.00,VWS V14.01,2013-04-22 11:15:00,
2013-04-22 05:20:00,28.2,24.8,27.07,East,90,0.0,0.0,87,0.00,,,0.00,VWS V14.01,2013-04-22 11:20:00,
2013-04-22 05:25:00,28.2,24.8,27.07,East,90,0.0,0.0,87,0.00,,,0.00,VWS V14.01,2013-04-22 11:25:00,
2013-04-22 05:30:00,28.2,24.8,27.07,East,90,0.0,0.0,87,0.00,,,0.00,VWS V14.01,2013-04-22 11:30:00,
2013-04-22 05:35:00,28.2,24.8,27.07,East,90,0.0,0.0,87,0.00,,,0.00,VWS V14.01,2013-04-22 11:35:00,
2013-04-22 05:40:00,28.2,24.8,27.07,East,90,0.0,0.0,87,0.00,,,0.00,VWS V14.01,2013-04-22 11:40:00,
2013-04-22 05:45:00,28.2,24.8,27.08,East,90,0.0,0.0,87,0.00,,,0.00,VWS V14.01,2013-04-22 11:45:00,
2013-04-22 05:50:00,28.2,24.8,27.08,East,90,0.0,0.0,87,0.00,,,0.00,VWS V14.01,2013-04-22 11:50:00,
2013-04-22 05:55:00,28.2,24.8,27.09,East,90,0.0,0.0,87,0.00,,,0.00,VWS V14.01,2013-04-22 11:55:00,
2013-04-22 06:01:00,28.2,24.8,27.08,East,90,0.0,0.0,87,0.00,,,0.00,VWS V14.01,2013-04-22 12:01:00,
2013-04-22 06:06:00,28.0,24.6,27.08,East,90,0.0,0.0,87,0.00,,,0.00,VWS V14.01,2013-04-22 12:06:00,
2013-04-22 06:11:00,28.0,24.6,27.08,East,90,0.0,0.0,87,0.00,,,0.00,VWS V14.01,2013-04-22 12:11:00,
2013-04-22 06:16:00,28.0,24.4,27.08,East,90,0.0,0.0,86,0.00,,,0.00,VWS V14.01,2013-04-22 12:16:00,
2013-04-22 06:21:00,28.0,24.6,27.09,East,90,0.0,0.0,87,0.00,,,0.00,VWS V14.01,2013-04-22 12:21:00,
2013-04-22 06:26:00,28.0,24.6,27.09,East,90,0.0,0.0,87,0.00,,,0.00,VWS V14.01,2013-04-22 12:26:00,
2013-04-22 06:31:00,27.6,24.0,27.09,East,90,0.0,0.0,86,0.00,,,0.00,VWS V14.01,2013-04-22 12:31:00,
2013-04-22 06:36:00,27.6,24.2,27.10,East,90,0.0,0.0,87,0.00,,,0.00,VWS V14.01,2013-04-22 12:36:00,
2013-04-22 06:41:00,27.6,24.2,27.10,East,90,0.0,0.0,87,0.00,,,0.00,VWS V14.01,2013-04-22 12:41:00,
2013-04-22 06:46:00,27.6,24.2,27.10,East,90,0.0,0.0,87,0.00,,,0.00,VWS V14.01,2013-04-22 12:46:00,
2013-04-22 06:51:00,28.0,24.6,27.11,East,90,0.0,0.0,87,0.00,,,0.00,VWS V14.01,2013-04-22 12:51:00,
2013-04-22 06:56:00,28.0,24.4,27.11,East,90,0.0,0.0,86,0.00,,,0.00,VWS V14.01,2013-04-22 12:56:00,
2013-04-22 07:01:00,28.0,24.4,27.11,East,90,0.0,0.0,86,0.00,,,0.00,VWS V14.01,2013-04-22 13:01:00,
2013-04-22 07:06:00,28.2,24.6,27.11,East,90,0.0,0.0,86,0.00,,,0.00,VWS V14.01,2013-04-22 13:06:00,
2013-04-22 07:11:00,28.5,24.6,27.12,East,90,0.0,0.0,85,0.00,,,0.00,VWS V14.01,2013-04-22 13:11:00,
2013-04-22 07:16:00,28.5,24.6,27.12,East,90,0.0,0.0,85,0.00,,,0.00,VWS V14.01,2013-04-22 13:16:00,
2013-04-22 07:21:00,28.5,24.3,27.13,East,90,0.0,0.0,84,0.00,,,0.00,VWS V14.01,2013-04-22 13:21:00,
2013-04-22 07:26:00,28.7,24.2,27.12,East,90,0.0,0.0,83,0.00,,,0.00,VWS V14.01,2013-04-22 13:26:00,
2013-04-22 07:31:00,28.5,24.0,27.13,East,90,0.0,0.0,83,0.00,,,0.00,VWS V14.01,2013-04-22 13:31:00,
2013-04-22 07:36:00,28.2,23.7,27.13,East,90,0.0,0.0,83,0.00,,,0.00,VWS V14.01,2013-04-22 13:36:00,
2013-04-22 07:41:00,28.2,23.7,27.13,East,90,0.0,0.0,83,0.00,,,0.00,VWS V14.01,2013-04-22 13:41:00,
2013-04-22 07:46:00,28.2,23.7,27.13,East,90,0.0,0.0,83,0.00,,,0.00,VWS V14.01,2013-04-22 13:46:00,
2013-04-22 07:51:00,28.5,24.0,27.13,East,90,0.0,0.0,83,0.00,,,0.00,VWS V14.01,2013-04-22 13:51:00,
2013-04-22 07:56:00,29.1,24.6,27.13,East,90,0.0,0.0,83,0.00,,,0.00,VWS V14.01,2013-04-22 13:56:00,
2013-04-22 08:01:00,29.3,24.8,27.14,East,90,0.0,0.0,83,0.00,,,0.00,VWS V14.01,2013-04-22 14:01:00,
2013-04-22 08:06:00,29.8,25.0,27.13,East,90,0.0,0.0,82,0.00,,,0.00,VWS V14.01,2013-04-22 14:06:00,
2013-04-22 08:11:00,30.3,25.2,27.13,East,90,0.0,0.0,81,0.00,,,0.00,VWS V14.01,2013-04-22 14:11:00,
2013-04-22 08:16:00,30.7,25.0,27.14,East,90,0.0,0.0,79,0.00,,,0.00,VWS V14.01,2013-04-22 14:16:00,
2013-04-22 08:21:00,30.5,24.5,27.14,East,90,0.0,0.0,78,0.00,,,0.00,VWS V14.01,2013-04-22 14:21:00,
2013-04-22 08:26:00,30.5,24.5,27.14,East,90,0.0,0.0,78,0.00,,,0.00,VWS V14.01,2013-04-22 14:26:00,
2013-04-22 08:31:00,30.7,24.7,27.14,East,90,0.0,0.0,78,0.00,,,0.00,VWS V14.01,2013-04-22 14:31:00,
2013-04-22 08:37:00,31.1,25.0,27.14,East,90,0.0,0.0,78,0.00,,,0.00,VWS V14.01,2013-04-22 14:37:00,
2013-04-22 08:42:00,31.6,24.9,27.14,East,90,0.0,0.0,76,0.00,,,0.00,VWS V14.01,2013-04-22 14:42:00,
2013-04-22 08:47:00,31.6,24.6,27.14,East,90,0.0,0.0,75,0.00,,,0.00,VWS V14.01,2013-04-22 14:47:00,
2013-04-22 08:52:00,31.2,24.2,27.15,East,90,0.0,0.0,75,0.00,,,0.00,VWS V14.01,2013-04-22 14:52:00,
2013-04-22 08:57:00,31.1,24.1,27.15,East,90,0.0,0.0,75,0.00,,,0.00,VWS V14.01,2013-04-22 14:57:00,
2013-04-22 09:02:00,30.9,23.9,27.16,East,90,0.0,0.0,75,0.00,,,0.00,VWS V14.01,2013-04-22 15:02:00,
2013-04-22 09:07:00,31.2,24.2,27.16,East,90,0.0,0.0,75,0.00,,,0.00,VWS V14.01,2013-04-22 15:07:00,
2013-04-22 09:12:00,31.8,24.5,27.16,East,90,0.0,0.0,74,0.00,,,0.00,VWS V14.01,2013-04-22 15:12:00,
2013-04-22 09:17:00,32.5,24.5,27.16,East,90,0.0,0.0,72,0.00,,,0.00,VWS V14.01,2013-04-22 15:17:00,
2013-04-22 09:22:00,32.7,24.7,27.16,East,90,0.0,0.0,72,0.00,,,0.00,VWS V14.01,2013-04-22 15:22:00,
2013-04-22 09:27:00,32.9,24.5,27.16,East,90,0.0,0.0,71,0.00,,,0.00,VWS V14.01,2013-04-22 15:27:00,
2013-04-22 09:32:00,33.0,24.3,27.16,East,90,0.0,0.0,70,0.00,,,0.00,VWS V14.01,2013-04-22 15:32:00,
2013-04-22 09:37:00,33.0,24.3,27.17,East,90,0.0,0.0,70,0.00,,,0.00,VWS V14.01,2013-04-22 15:37:00,
2013-04-22 09:42:00,33.2,24.8,27.17,East,90,0.0,0.0,71,0.00,,,0.00,VWS V14.01,2013-04-22 15:42:00,
2013-04-22 09:47:00,33.6,24.5,27.17,East,90,0.0,0.0,69,0.00,,,0.00,VWS V14.01,2013-04-22 15:47:00,
2013-04-22 09:52:00,33.9,24.8,27.17,East,90,0.0,0.0,69,0.00,,,0.00,VWS V14.01,2013-04-22 15:52:00,
2013-04-22 09:57:00,33.8,24.7,27.17,East,90,0.0,0.0,69,0.00,,,0.00,VWS V14.01,2013-04-22 15:57:00,
2013-04-22 10:02:00,33.9,24.8,27.17,East,90,0.0,0.0,69,0.00,,,0.00,VWS V14.01,2013-04-22 16:02:00,
2013-04-22 10:07:00,34.1,25.0,27.17,East,90,0.0,0.0,69,0.00,,,0.00,VWS V14.01,2013-04-22 16:07:00,
2013-04-22 10:12:00,35.2,26.1,27.17,East,90,0.0,0.0,69,0.00,,,0.00,VWS V14.01,2013-04-22 16:12:00,
2013-04-22 10:17:00,36.3,25.7,27.17,East,90,0.0,0.0,65,0.00,,,0.00,VWS V14.01,2013-04-22 16:17:00,
2013-04-22 10:22:00,36.8,26.1,27.18,East,90,0.0,0.0,65,0.00,,,0.00,VWS V14.01,2013-04-22 16:22:00,
2013-04-22 10:27:00,37.4,26.4,27.18,East,90,0.0,0.0,64,0.00,,,0.00,VWS V14.01,2013-04-22 16:27:00,
2013-04-22 10:32:00,37.7,25.9,27.18,East,90,0.0,0.0,62,0.00,,,0.00,VWS V14.01,2013-04-22 16:32:00,
2013-04-22 10:37:00,37.9,26.1,27.18,East,90,0.0,0.0,62,0.00,,,0.00,VWS V14.01,2013-04-22 16:37:00,
2013-04-22 10:42:00,37.9,26.1,27.18,East,90,0.0,0.0,62,0.00,,,0.00,VWS V14.01,2013-04-22 16:42:00,
2013-04-22 10:47:00,37.5,25.7,27.19,East,90,0.0,0.0,62,0.00,,,0.00,VWS V14.01,2013-04-22 16:47:00,
2013-04-22 10:52:00,37.9,25.7,27.19,East,90,0.0,0.0,61,0.00,,,0.00,VWS V14.01,2013-04-22 16:52:00,
2013-04-22 10:57:00,38.1,25.9,27.19,East,90,0.0,0.0,61,0.00,,,0.00,VWS V14.01,2013-04-22 16:57:00,
2013-04-22 11:02:00,38.3,26.0,27.19,East,90,0.0,0.0,61,0.00,,,0.00,VWS V14.01,2013-04-22 17:02:00,
2013-04-22 11:08:00,38.4,26.1,27.19,East,90,0.0,0.0,61,0.00,,,0.00,VWS V14.01,2013-04-22 17:08:00,
2013-04-22 11:13:00,39.0,25.9,27.19,East,90,0.0,0.0,59,0.00,,,0.00,VWS V14.01,2013-04-22 17:13:00,
2013-04-22 11:18:00,39.3,25.8,27.19,East,90,0.0,0.0,58,0.00,,,0.00,VWS V14.01,2013-04-22 17:18:00,
2013-04-22 11:23:00,38.8,25.3,27.19,East,90,0.0,0.0,58,0.00,,,0.00,VWS V14.01,2013-04-22 17:23:00,
2013-04-22 11:28:00,38.4,24.9,27.19,East,90,0.0,0.0,58,0.00,,,0.00,VWS V14.01,2013-04-22 17:28:00,
2013-04-22 11:33:00,37.9,24.9,27.19,East,90,0.0,0.0,59,0.00,,,0.00,VWS V14.01,2013-04-22 17:33:00,
2013-04-22 11:38:00,37.9,24.9,27.19,East,90,0.0,0.0,59,0.00,,,0.00,VWS V14.01,2013-04-22 17:38:00,
2013-04-22 11:43:00,38.3,25.2,27.19,East,90,0.0,0.0,59,0.00,,,0.00,VWS V14.01,2013-04-22 17:43:00,
2013-04-22 11:48:00,38.3,24.8,27.19,East,90,0.0,0.0,58,0.00,,,0.00,VWS V14.01,2013-04-22 17:48:00,
2013-04-22 11:53:00,37.9,24.9,27.19,East,90,0.0,0.0,59,0.00,,,0.00,VWS V14.01,2013-04-22 17:53:00,
2013-04-22 11:58:00,37.2,24.2,27.19,East,90,0.0,0.0,59,0.00,,,0.00,VWS V14.01,2013-04-22 17:58:00,
2013-04-22 12:03:00,37.4,24.8,27.19,East,90,0.0,0.0,60,0.00,,,0.00,VWS V14.01,2013-04-22 18:03:00,
2013-04-22 12:08:00,38.3,25.6,27.19,East,90,9.1,9.6,60,0.00,,,0.00,VWS V14.01,2013-04-22 18:08:00,
2013-04-22 12:13:00,38.4,24.9,27.20,East,90,11.4,16.1,58,0.00,,,0.00,VWS V14.01,2013-04-22 18:13:00,
2013-04-22 12:18:00,37.7,24.3,27.20,East,90,11.1,13.4,58,0.00,,,0.00,VWS V14.01,2013-04-22 18:18:00,
2013-04-22 12:23:00,37.5,24.5,27.20,East,90,6.2,13.4,59,0.00,,,0.00,VWS V14.01,2013-04-22 18:23:00,
2013-04-22 12:28:00,39.3,26.2,27.20,East,90,13.1,13.4,59,0.00,,,0.00,VWS V14.01,2013-04-22 18:28:00,
2013-04-22 12:33:00,39.9,25.5,27.20,East,90,10.0,10.0,56,0.00,,,0.00,VWS V14.01,2013-04-22 18:33:00,
2013-04-22 12:38:00,39.9,25.1,27.20,East,90,12.0,12.7,55,0.00,,,0.00,VWS V14.01,2013-04-22 18:38:00,
2013-04-22 12:43:00,41.1,25.7,27.20,East,90,11.4,12.7,54,0.00,,,0.00,VWS V14.01,2013-04-22 18:43:00,
2013-04-22 12:48:00,42.2,25.9,27.20,East,90,4.2,9.8,52,0.00,,,0.00,VWS V14.01,2013-04-22 18:48:00,
2013-04-22 12:53:00,42.9,26.0,27.20,East,90,9.8,9.8,51,0.00,,,0.00,VWS V14.01,2013-04-22 18:53:00,
2013-04-22 12:58:00,42.6,25.8,27.19,East,90,8.0,10.2,51,0.00,,,0.00,VWS V14.01,2013-04-22 18:58:00,
2013-04-22 13:03:00,43.1,26.2,27.19,East,90,6.2,15.2,51,0.00,,,0.00,VWS V14.01,2013-04-22 19:03:00,
2013-04-22 13:08:00,43.7,25.8,27.20,NW,315,8.2,15.2,49,0.00,,,0.00,VWS V14.01,2013-04-22 19:08:00,
2013-04-22 13:13:00,44.4,26.5,27.20,NW,315,7.3,15.2,49,0.00,,,0.00,VWS V14.01,2013-04-22 19:13:00,
2013-04-22 13:18:00,44.9,26.4,27.20,NNW,338,10.2,10.2,48,0.00,,,0.00,VWS V14.01,2013-04-22 19:18:00,
2013-04-22 13:23:00,44.4,25.5,27.20,NW,315,13.6,13.6,47,0.00,,,0.00,VWS V14.01,2013-04-22 19:23:00,
2013-04-22 13:28:00,45.1,26.1,27.20,NW,315,5.1,13.6,47,0.00,,,0.00,VWS V14.01,2013-04-22 19:28:00,
2013-04-22 13:33:00,45.6,26.0,27.20,NNW,338,10.2,14.5,46,0.00,,,0.00,VWS V14.01,2013-04-22 19:33:00,
2013-04-22 13:38:00,45.1,25.0,27.20,WNW,292,5.1,14.5,45,0.00,,,0.00,VWS V14.01,2013-04-22 19:38:00,
2013-04-22 13:44:00,43.5,24.6,27.19,WNW,292,8.5,14.5,47,0.00,,,0.00,VWS V14.01,2013-04-22 19:44:00,
2013-04-22 13:49:00,43.3,24.4,27.19,NW,315,11.8,12.3,47,0.00,,,0.00,VWS V14.01,2013-04-22 19:49:00,
2013-04-22 13:54:00,43.3,24.4,27.19,NW,315,14.0,14.0,47,0.00,,,0.00,VWS V14.01,2013-04-22 19:54:00,
2013-04-22 13:59:00,42.4,23.6,27.19,NNW,338,15.4,15.4,47,0.00,,,0.00,VWS V14.01,2013-04-22 19:59:00,
2013-04-22 14:04:00,41.1,22.9,27.20,NNW,338,10.5,16.5,48,0.00,,,0.00,VWS V14.01,2013-04-22 20:04:00,
2013-04-22 14:09:00,40.8,23.1,27.20,North,0,4.6,18.5,49,0.00,,,0.00,VWS V14.01,2013-04-22 20:09:00,
2013-04-22 14:14:00,40.6,23.4,27.20,NNW,338,17.6,18.5,50,0.00,,,0.00,VWS V14.01,2013-04-22 20:14:00,
2013-04-22 14:19:00,40.6,23.9,27.20,NNW,338,9.1,10.5,51,0.00,,,0.00,VWS V14.01,2013-04-22 20:19:00,
2013-04-22 14:24:00,41.1,23.4,27.20,NNE,22,9.8,10.5,49,0.00,,,0.00,VWS V14.01,2013-04-22 20:24:00,
2013-04-22 14:29:00,41.0,23.3,27.20,NNW,338,12.0,12.0,49,0.00,,,0.00,VWS V14.01,2013-04-22 20:29:00,
2013-04-22 14:34:00,40.4,22.8,27.20,NNW,338,17.6,17.6,49,0.00,,,0.00,VWS V14.01,2013-04-22 20:34:00,
2013-04-22 14:39:00,40.1,23.0,27.20,NNW,338,11.4,17.6,50,0.00,,,0.00,VWS V14.01,2013-04-22 20:39:00,
2013-04-22 14:44:00,40.2,22.6,27.20,NNW,338,12.3,17.6,49,0.00,,,0.00,VWS V14.01,2013-04-22 20:44:00,
2013-04-22 14:49:00,39.5,21.9,27.20,NNW,338,9.3,13.4,49,0.00,,,0.00,VWS V14.01,2013-04-22 20:49:00,
2013-04-22 14:54:00,39.0,22.4,27.20,North,0,10.2,13.4,51,0.00,,,0.00,VWS V14.01,2013-04-22 20:54:00,
2013-04-22 14:59:00,39.3,23.2,27.20,North,0,7.3,13.4,52,0.00,,,0.00,VWS V14.01,2013-04-22 20:59:00,
2013-04-22 15:04:00,38.4,22.3,27.20,NNE,22,11.1,14.9,52,0.00,,,0.00,VWS V14.01,2013-04-22 21:04:00,
2013-04-22 15:09:00,38.8,22.2,27.20,North,0,11.1,16.7,51,0.00,,,0.00,VWS V14.01,2013-04-22 21:09:00,
2013-04-22 15:14:00,39.0,22.4,27.20,NW,315,14.5,16.7,51,0.00,,,0.00,VWS V14.01,2013-04-22 21:14:00,
2013-04-22 15:19:00,39.3,22.2,27.20,North,0,16.1,16.1,50,0.00,,,0.00,VWS V14.01,2013-04-22 21:19:00,
2013-04-22 15:24:00,38.8,21.8,27.20,WNW,292,9.1,16.1,50,0.00,,,0.00,VWS V14.01,2013-04-22 21:24:00,
2013-04-22 15:29:00,38.4,21.9,27.20,North,0,12.0,16.1,51,0.00,,,0.00,VWS V14.01,2013-04-22 21:29:00,
2013-04-22 15:34:00,38.1,21.6,27.20,NNW,338,12.3,17.4,51,0.00,,,0.00,VWS V14.01,2013-04-22 21:34:00,
2013-04-22 15:39:00,37.5,21.5,27.20,NW,315,11.6,17.4,52,0.00,,,0.00,VWS V14.01,2013-04-22 21:39:00,
2013-04-22 15:44:00,37.2,21.2,27.20,NNW,338,13.4,17.4,52,0.00,,,0.00,VWS V14.01,2013-04-22 21:44:00,
2013-04-22 15:49:00,37.0,21.5,27.20,North,0,12.9,15.4,53,0.00,,,0.00,VWS V14.01,2013-04-22 21:49:00,
2013-04-22 15:54:00,37.2,21.7,27.20,WNW,292,11.8,15.4,53,0.00,,,0.00,VWS V14.01,2013-04-22 21:54:00,
2013-04-22 15:59:00,37.4,21.4,27.20,NNE,22,9.6,15.4,52,0.00,,,0.00,VWS V14.01,2013-04-22 21:59:00,
2013-04-22 16:05:00,36.6,21.1,27.20,NNW,338,9.6,19.2,53,0.00,,,0.00,VWS V14.01,2013-04-22 22:05:00,
2013-04-22 16:10:00,36.6,21.5,27.20,NNW,338,12.7,19.2,54,0.00,,,0.00,VWS V14.01,2013-04-22 22:10:00,
2013-04-22 16:15:00,37.2,21.2,27.20,NNW,338,11.8,19.2,52,0.00,,,0.00,VWS V14.01,2013-04-22 22:15:00,
2013-04-22 16:20:00,37.9,21.9,27.20,North,0,10.0,11.8,52,0.00,,,0.00,VWS V14.01,2013-04-22 22:20:00,
2013-04-22 16:25:00,38.4,21.4,27.20,NNE,22,9.6,11.8,50,0.00,,,0.00,VWS V14.01,2013-04-22 22:25:00,
2013-04-22 16:30:00,38.4,21.4,27.20,NNW,338,7.1,7.1,50,0.00,,,0.00,VWS V14.01,2013-04-22 22:30:00,
2013-04-22 16:35:00,38.4,21.9,27.20,NW,315,9.3,9.3,51,0.00,,,0.00,VWS V14.01,2013-04-22 22:35:00,
2013-04-22 16:40:00,38.3,21.8,27.20,NNW,338,11.4,11.8,51,0.00,,,0.00,VWS V14.01,2013-04-22 22:40:00,
2013-04-22 16:45:00,38.1,21.6,27.20,NW,315,4.4,4.4,51,0.00,,,0.00,VWS V14.01,2013-04-22 22:45:00,
2013-04-22 16:50:00,37.9,21.4,27.20,NW,315,9.1,9.1,51,0.00,,,0.00,VWS V14.01,2013-04-22 22:50:00,
2013-04-22 16:55:00,37.9,21.4,27.20,NNE,22,6.0,9.1,51,0.00,,,0.00,VWS V14.01,2013-04-22 22:55:00,
2013-04-22 17:00:00,37.7,21.7,27.19,North,0,9.1,9.1,52,0.00,,,0.00,VWS V14.01,2013-04-22 23:00:00,
2013-04-22 17:05:00,37.4,21.4,27.19,North,0,5.5,9.1,52,0.00,,,0.00,VWS V14.01,2013-04-22 23:05:00,
2013-04-22 17:10:00,37.2,20.8,27.19,NNW,338,9.1,10.0,51,0.00,,,0.00,VWS V14.01,2013-04-22 23:10:00,
2013-04-22 17:15:00,36.3,20.4,27.19,NNW,338,7.6,7.6,52,0.00,,,0.00,VWS V14.01,2013-04-22 23:15:00,
2013-04-22 17:20:00,35.9,20.0,27.20,West,270,4.9,10.5,52,0.00,,,0.00,VWS V14.01,2013-04-22 23:20:00,
2013-04-22 17:25:00,35.4,19.5,27.20,NE,45,5.5,10.5,52,0.00,,,0.00,VWS V14.01,2013-04-22 23:25:00,
2013-04-22 17:30:00,35.2,19.8,27.20,NNW,338,2.0,2.0,53,0.00,,,0.00,VWS V14.01,2013-04-22 23:30:00,
2013-04-22 17:35:00,35.2,19.8,27.19,NW,315,7.8,8.0,53,0.00,,,0.00,VWS V14.01,2013-04-22 23:35:00,
2013-04-22 17:40:00,34.8,19.4,27.20,WNW,292,7.6,8.0,53,0.00,,,0.00,VWS V14.01,2013-04-22 23:40:00,
2013-04-22 17:45:00,34.8,19.9,27.20,NNW,338,3.3,3.3,54,0.00,,,0.00,VWS V14.01,2013-04-22 23:45:00,
2013-04-22 17:50:00,34.7,19.8,27.20,NNW,338,5.1,6.9,54,0.00,,,0.00,VWS V14.01,2013-04-22 23:50:00,
2013-04-22 17:55:00,34.7,19.8,27.20,NNE,22,3.5,6.9,54,0.00,,,0.00,VWS V14.01,2013-04-22 23:55:00,
2013-04-22 18:00:00,34.7,19.8,27.20,NNE,22,6.0,6.0,54,0.00,,,0.00,VWS V14.01,2013-04-23 00:00:00,
2013-04-22 18:05:00,34.7,19.8,27.20,WNW,292,4.4,6.0,54,0.00,,,0.00,VWS V14.01,2013-04-23 00:05:00,
2013-04-22 18:10:00,34.7,20.2,27.20,WNW,292,7.3,8.7,55,0.00,,,0.00,VWS V14.01,2013-04-23 00:10:00,
2013-04-22 18:15:00,34.7,19.8,27.20,NW,315,7.6,7.6,54,0.00,,,0.00,VWS V14.01,2013-04-23 00:15:00,
2013-04-22 18:20:00,34.5,19.6,27.20,West,270,3.3,7.6,54,0.00,,,0.00,VWS V14.01,2013-04-23 00:20:00,
2013-04-22 18:26:00,34.5,20.0,27.20,North,0,6.2,7.6,55,0.00,,,0.00,VWS V14.01,2013-04-23 00:26:00,
2013-04-22 18:31:00,34.3,19.8,27.20,North,0,6.7,6.7,55,0.00,,,0.00,VWS V14.01,2013-04-23 00:31:00,
2013-04-22 18:36:00,33.9,19.5,27.20,NNE,22,2.9,6.7,55,0.00,,,0.00,VWS V14.01,2013-04-23 00:36:00,
2013-04-22 18:41:00,33.8,19.4,27.20,NE,45,3.5,6.7,55,0.00,,,0.00,VWS V14.01,2013-04-23 00:41:00,
2013-04-22 18:46:00,33.6,19.2,27.20,NNE,22,7.6,7.6,55,0.00,,,0.00,VWS V14.01,2013-04-23 00:46:00,
2013-04-22 18:51:00,32.9,18.5,27.20,North,0,9.8,9.8,55,0.00,,,0.00,VWS V14.01,2013-04-23 00:51:00,
2013-04-22 18:56:00,32.5,18.6,27.20,North,0,3.1,9.8,56,0.00,,,0.00,VWS V14.01,2013-04-23 00:56:00,
2013-04-22 19:01:00,31.8,17.9,27.20,NNW,338,6.9,6.9,56,0.00,,,0.00,VWS V14.01,2013-04-23 01:01:00,
2013-04-22 19:06:00,31.2,17.8,27.20,NNE,22,4.6,6.9,57,0.00,,,0.00,VWS V14.01,2013-04-23 01:06:00,
2013-04-22 19:11:00,30.9,17.5,27.20,NE,45,4.4,6.9,57,0.00,,,0.00,VWS V14.01,2013-04-23 01:11:00,
2013-04-22 19:16:00,30.5,17.1,27.20,NW,315,2.0,2.0,57,0.00,,,0.00,VWS V14.01,2013-04-23 01:16:00,
2013-04-22 19:21:00,30.0,17.0,27.21,NNW,338,3.5,6.2,58,0.00,,,0.00,VWS V14.01,2013-04-23 01:21:00,
2013-04-22 19:26:00,29.4,16.5,27.21,NNW,338,3.3,6.2,58,0.00,,,0.00,VWS V14.01,2013-04-23 01:26:00,
2013-04-22 19:31:00,29.1,16.6,27.21,NNW,338,3.8,3.8,59,0.00,,,0.00,VWS V14.01,2013-04-23 01:31:00,
2013-04-22 19:36:00,28.2,15.7,27.21,NNW,338,2.9,5.8,59,0.00,,,0.00,VWS V14.01,2013-04-23 01:36:00,
2013-04-22 19:41:00,28.2,16.1,27.21,North,0,4.4,5.8,60,0.00,,,0.00,VWS V14.01,2013-04-23 01:41:00,
2013-04-22 19:46:00,27.6,15.6,27.21,North,0,4.6,4.6,60,0.00,,,0.00,VWS V14.01,2013-04-23 01:46:00,
2013-04-22 19:51:00,27.3,15.6,27.21,North,0,4.6,4.6,61,0.00,,,0.00,VWS V14.01,2013-04-23 01:51:00,
2013-04-22 19:56:00,27.1,15.4,27.22,North,0,3.8,6.2,61,0.00,,,0.00,VWS V14.01,2013-04-23 01:56:00,
2013-04-22 20:01:00,26.7,15.1,27.22,North,0,1.3,1.3,61,0.00,,,0.00,VWS V14.01,2013-04-23 02:01:00,
2013-04-22 20:06:00,26.4,15.2,27.21,NW,315,3.5,6.0,62,0.00,,,0.00,VWS V14.01,2013-04-23 02:06:00,
2013-04-22 20:11:00,26.4,15.2,27.21,North,0,4.6,6.0,62,0.00,,,0.00,VWS V14.01,2013-04-23 02:11:00,
2013-04-22 20:16:00,26.2,15.3,27.22,NW,315,4.4,4.4,63,0.00,,,0.00,VWS V14.01,2013-04-23 02:16:00,
2013-04-22 20:21:00,25.8,15.0,27.22,NW,315,2.0,5.1,63,0.00,,,0.00,VWS V14.01,2013-04-23 02:21:00,
2013-04-22 20:26:00,25.7,14.9,27.22,WNW,292,2.0,5.1,63,0.00,,,0.00,VWS V14.01,2013-04-23 02:26:00,
2013-04-22 20:31:00,25.7,14.9,27.22,WNW,292,2.0,2.0,63,0.00,,,0.00,VWS V14.01,2013-04-23 02:31:00,
2013-04-22 20:36:00,25.5,14.7,27.22,NNE,22,2.9,2.9,63,0.00,,,0.00,VWS V14.01,2013-04-23 02:36:00,
2013-04-22 20:42:00,25.5,15.0,27.22,NNW,338,2.0,3.1,64,0.00,,,0.00,VWS V14.01,2013-04-23 02:42:00,
2013-04-22 20:47:00,25.3,14.8,27.22,NW,315,0.8,0.8,64,0.00,,,0.00,VWS V14.01,2013-04-23 02:47:00,
2013-04-22 20:52:00,25.1,14.6,27.22,NW,315,0.0,4.0,64,0.00,,,0.00,VWS V14.01,2013-04-23 02:52:00,
2013-04-22 20:57:00,25.1,14.6,27.22,NW,315,0.8,4.0,64,0.00,,,0.00,VWS V14.01,2013-04-23 02:57:00,
2013-04-22 21:02:00,24.9,14.8,27.22,NW,315,1.5,1.5,65,0.00,,,0.00,VWS V14.01,2013-04-23 03:02:00,
2013-04-22 21:07:00,24.9,14.8,27.22,WNW,292,4.2,4.2,65,0.00,,,0.00,VWS V14.01,2013-04-23 03:07:00,
2013-04-22 21:12:00,24.9,14.8,27.23,NNW,338,0.0,4.2,65,0.00,,,0.00,VWS V14.01,2013-04-23 03:12:00,
2013-04-22 21:17:00,24.6,14.5,27.22,NW,315,1.7,1.7,65,0.00,,,0.00,VWS V14.01,2013-04-23 03:17:00,
2013-04-22 21:22:00,24.6,14.5,27.22,NW,315,2.0,2.0,65,0.00,,,0.00,VWS V14.01,2013-04-23 03:22:00,
2013-04-22 21:27:00,24.4,14.3,27.23,NNW,338,0.0,2.0,65,0.00,,,0.00,VWS V14.01,2013-04-23 03:27:00,
2013-04-22 21:32:00,24.4,14.3,27.23,NW,315,0.0,0.0,65,0.00,,,0.00,VWS V14.01,2013-04-23 03:32:00,
2013-04-22 21:37:00,24.2,14.1,27.23,NW,315,0.0,1.3,65,0.00,,,0.00,VWS V14.01,2013-04-23 03:37:00,
2013-04-22 21:42:00,24.0,14.3,27.22,WNW,292,0.0,1.3,66,0.00,,,0.00,VWS V14.01,2013-04-23 03:42:00,
2013-04-22 21:47:00,23.7,14.0,27.22,NW,315,1.3,2.4,66,0.00,,,0.00,VWS V14.01,2013-04-23 03:47:00,
2013-04-22 21:52:00,23.5,13.8,27.22,NW,315,2.0,2.4,66,0.00,,,0.00,VWS V14.01,2013-04-23 03:52:00,
2013-04-22 21:57:00,23.5,13.8,27.22,NW,315,2.4,3.5,66,0.00,,,0.00,VWS V14.01,2013-04-23 03:57:00,
2013-04-22 22:01:00,23.3,13.6,27.23,NNW,338,0.0,0.0,66,0.00,,,0.00,VWS V14.01,2013-04-23 04:01:00,
2013-04-22 22:02:00,23.3,13.6,27.22,NNW,338,0.0,0.0,66,0.00,,,0.00,VWS V14.01,2013-04-23 04:02:00,
2013-04-22 22:04:00,23.1,13.4,27.22,NW,315,0.0,0.0,66,0.00,,,0.00,VWS V14.01,2013-04-23 04:04:00,
2013-04-22 22:06:00,23.1,13.4,27.22,NW,315,2.6,2.6,66,0.00,,,0.00,VWS V14.01,2013-04-23 04:06:00,
2013-04-22 22:12:00,22.8,13.5,27.22,NNW,338,1.5,3.1,67,0.00,,,0.00,VWS V14.01,2013-04-23 04:12:00,
2013-04-22 22:17:00,22.6,13.0,27.22,NNW,338,1.5,1.5,66,0.00,,,0.00,VWS V14.01,2013-04-23 04:17:00,
2013-04-22 22:18:00,22.6,13.0,27.22,NNW,338,1.5,1.5,66,0.00,,,0.00,VWS V14.01,2013-04-23 04:18:00,
2013-04-22 22:23:00,22.2,12.9,27.22,NW,315,3.8,3.8,67,0.00,,,0.00,VWS V14.01,2013-04-23 04:23:00,
2013-04-22 22:28:00,22.1,12.8,27.22,NNW,338,2.4,3.8,67,0.00,,,0.00,VWS V14.01,2013-04-23 04:28:00,
2013-04-22 22:33:00,21.9,12.6,27.22,NNW,338,1.1,1.1,67,0.00,,,0.00,VWS V14.01,2013-04-23 04:33:00,
2013-04-22 22:38:00,21.7,12.4,27.22,NNW,338,2.9,2.9,67,0.00,,,0.00,VWS V14.01,2013-04-23 04:38:00,
2013-04-22 22:43:00,21.5,12.6,27.22,NNW,338,1.1,2.9,68,0.00,,,0.00,VWS V14.01,2013-04-23 04:43:00,
2013-04-22 22:48:00,21.5,12.3,27.22,NW,315,0.0,2.0,67,0.00,,,0.00,VWS V14.01,2013-04-23 04:48:00,
2013-04-22 22:53:00,21.3,12.4,27.21,NNW,338,2.0,2.4,68,0.00,,,0.00,VWS V14.01,2013-04-23 04:53:00,
2013-04-22 22:58:00,21.0,12.1,27.21,NNW,338,1.3,2.4,68,0.00,,,0.00,VWS V14.01,2013-04-23 04:58:00,
2013-04-22 23:03:00,21.0,12.1,27.22,WNW,292,0.0,0.0,68,0.00,,,0.00,VWS V14.01,2013-04-23 05:03:00,
2013-04-22 23:08:00,20.8,11.9,27.21,WNW,292,0.0,1.3,68,0.00,,,0.00,VWS V14.01,2013-04-23 05:08:00,
2013-04-22 23:13:00,20.8,11.9,27.22,WNW,292,0.0,1.3,68,0.00,,,0.00,VWS V14.01,2013-04-23 05:13:00,
2013-04-22 23:18:00,20.4,11.5,27.21,WNW,292,0.0,0.0,68,0.00,,,0.00,VWS V14.01,2013-04-23 05:18:00,
2013-04-22 23:23:00,19.9,11.1,27.22,NW,315,0.0,0.0,68,0.00,,,0.00,VWS V14.01,2013-04-23 05:23:00,
2013-04-22 23:28:00,19.9,11.1,27.22,NW,315,0.0,0.0,68,0.00,,,0.00,VWS V14.01,2013-04-23 05:28:00,
2013-04-22 23:33:00,19.5,10.7,27.21,NW,315,0.0,0.0,68,0.00,,,0.00,VWS V14.01,2013-04-23 05:33:00,
2013-04-22 23:38:00,19.2,10.7,27.21,NW,315,0.0,0.0,69,0.00,,,0.00,VWS V14.01,2013-04-23 05:38:00,
2013-04-22 23:43:00,19.0,10.5,27.22,NW,315,0.0,0.0,69,0.00,,,0.00,VWS V14.01,2013-04-23 05:43:00,
2013-04-22 23:48:00,18.6,9.8,27.22,WNW,292,0.0,0.0,68,0.00,,,0.00,VWS V14.01,2013-04-23 05:48:00,
2013-04-22 23:53:00,18.3,9.5,27.21,West,270,0.0,0.0,68,0.00,,,0.00,VWS V14.01,2013-04-23 05:53:00,
2013-04-22 23:58:00,17.9,9.5,27.22,West,270,0.0,0.0,69,0.00,,,0.00,VWS V14.01,2013-04-23 05:58:00,